x

New Dungeness - 17 Nm Ne Of Port Angeles, Wa (46088) Wave Buoy

5:20pm - Thu 30th Jun 2016 All times are PDT. -7 hours from GMT.

  • Sig Wave height 1.6ft
  • Swell Direction
  • Peak Period 3s
  • Average Period 3s
  • Wind
    20mph, 22mph gusts
  • Sea Temp 52°f
  • Air Temp 55°f
  • Sea Pressure 1020.3mb
  • New Dungeness - 17 Nm Ne Of Port Angeles, Wa
  • New Dungeness - 17 Nm Ne Of Port Angeles, Wa

More Historic Weather Station data

Upgrade to MSW Pro to gain access to the past 30 days of data for over 8000 Wavebouys and Weather Stations around the globe.

Join Pro

Comparision Forecast

View Surf forecast
   
Thu 06/30 5:20pm 1.6ft 3s 3s 20 22 mph 1020.3mb 52f 55f
4:50pm 1.6ft 3s 3s 18 20 mph 1020.8mb 52f 55f
3:50pm 1.3ft 3s 3s 18 20 mph 1021.4mb 53f 55f
3:20pm 1.3ft 3s 3s 16 20 mph 1021.7mb 52f 55f
2:50pm 1.3ft 3s 3s 18 20 mph 1021.8mb 52f 54f
2:20pm 1.3ft 3s 3s 18 20 mph 1022.2mb 52f 55f
1:50pm 1.3ft 3s 3s 18 20 mph 1022.3mb 52f 55f
1:20pm 1.6ft 3s 3s 16 18 mph 1022.6mb 52f 55f
12:50pm 2ft 3s 3s 16 18 mph 1022.8mb 52f 55f
12:20pm 2ft 4s 4s 11 13 mph 1023mb 53f 54f
11:50am 2ft 4s 4s 11 13 mph 1023mb 53f 54f
11:20am 2.5ft 4s 4s 11 13 mph 1022.7mb 53f 55f
10:50am 2.5ft 5s 4s 13 16 mph 1022.8mb 52f 54f
10:20am 2.5ft 5s 4s 16 18 mph 1022.7mb 52f 55f
9:50am 2.5ft 4s 4s 16 20 mph 1022.9mb 53f 54f
9:20am 2.5ft 5s 4s 16 18 mph 1022.8mb 52f 54f
8:50am 2.5ft 6s 4s 16 18 mph 1022.8mb 52f 54f
8:20am 2.5ft 6s 5s 20 22 mph 1022.5mb 52f 53f
7:50am 3ft 6s 5s 18 22 mph 1022.4mb 52f 53f
7:20am 3ft 6s 5s 20 25 mph 1022.3mb 52f 54f
6:50am 3ft 6s 5s 20 25 mph 1021.9mb 51f 53f
6:20am 3ft 7s 5s 22 25 mph 1021.5mb 51f 53f
5:50am 2.5ft 7s 5s 22 27 mph 1021.3mb 51f 53f
5:20am 2.5ft 6s 5s 22 27 mph 1021.3mb 51f 53f
4:50am 3ft 5s 5s 25 29 mph 1020.9mb 51f 53f
4:20am 3ft 5s 4s 25 31 mph 1020.8mb 52f 53f
3:50am 3.5ft 5s 4s 25 31 mph 1020.4mb 51f 53f
3:20am 3.5ft 5s 4s 27 34 mph 1020.2mb 51f 53f
2:50am 4ft 5s 4s 27 31 mph 1020.2mb 51f 54f
2:20am 4ft 5s 4s 27 31 mph 1019.9mb 51f 54f
1:50am 4.5ft 5s 4s 31 36 mph 1019.5mb 51f 54f
1:20am 4.5ft 5s 4s 29 36 mph 1019.8mb 51f 54f
12:50am 4.5ft 5s 4s 29 34 mph 1019.6mb 51f 54f
12:20am 4.5ft 5s 4s 31 38 mph 1019.5mb 51f 54f
Wed 06/29 11:50pm 4.5ft 5s 4s 29 34 mph 1019.5mb 51f 54f
11:20pm 4.5ft 5s 4s 29 38 mph 1019.7mb 52f 55f
10:50pm 4.5ft 5s 4s 31 40 mph 1019.3mb 52f 55f
10:20pm 5ft 5s 4s 31 40 mph 1019.3mb 52f 55f
9:50pm 5.5ft 6s 5s 34 40 mph 1019.1mb 52f 55f
9:20pm 6ft 6s 5s 34 40 mph 1018.8mb 52f 55f
8:50pm 6ft 6s 5s 36 43 mph 1018.6mb 52f 55f
8:20pm 6ft 6s 5s 36 45 mph 1018.2mb 52f 56f
7:50pm 5.5ft 5s 5s 34 40 mph 1018.2mb 53f 56f
7:20pm 5.5ft 5s 5s 31 36 mph 1018.2mb 52f 56f
6:50pm 5ft 6s 4s 29 34 mph 1018.3mb 51f 57f
6:20pm 5ft 5s 4s 27 34 mph 1018.5mb 52f 57f
5:50pm 4.5ft 5s 4s 25 31 mph 1018.7mb 52f 56f
5:20pm 3.5ft 5s 4s 27 31 mph 1018.7mb 52f 56f
4:50pm 3.5ft 5s 4s 22 27 mph 1019.2mb 52f 57f
4:20pm 2ft 4s 3s 18 22 mph 1019.7mb 52f 57f
3:50pm 2ft 4s 3s 18 22 mph 1020mb 52f 56f
3:20pm 2ft 4s 3s 18 22 mph 1020.2mb 52f 55f
2:50pm 2ft 4s 3s 18 20 mph 1020.5mb 52f 55f
2:20pm 2.5ft 4s 3s 16 18 mph 1020.8mb 52f 55f
1:50pm 2ft 4s 3s 18 20 mph 1020.8mb 52f 55f
1:20pm 2ft 3s 3s 18 20 mph 1021.2mb 52f 54f
12:50pm 1.6ft 3s 3s 18 20 mph 1021.4mb 52f 54f
12:20pm 2ft 3s 3s 18 20 mph 1021.6mb 52f 54f
11:50am 2ft 4s 4s 16 20 mph 1021.7mb 53f 54f
11:20am 2.5ft 4s 4s 16 18 mph 1021.8mb 53f 54f
10:50am 2.5ft 4s 4s 16 20 mph 1021.8mb 52f 54f
10:20am 2.5ft 5s 4s 13 16 mph 1021.8mb 52f 54f
9:50am 2.5ft 5s 4s 16 25 mph 1021.7mb 52f 55f
9:20am 2.5ft 5s 4s 16 18 mph 1021.7mb 52f 54f
8:50am 3ft 5s 5s 16 18 mph 1021.7mb 52f 54f
8:20am 2.5ft 5s 5s 16 18 mph 1021.6mb 52f 54f
7:50am 2.5ft 6s 5s 13 16 mph 1021.5mb 51f 54f
7:20am 2ft 5s 4s 13 16 mph 1021.4mb 51f 53f
6:50am 2ft 5s 4s 11 13 mph 1021.4mb 51f 54f
6:20am 1.6ft 5s 4s 11 13 mph 1021.2mb 51f 53f
5:50am 1.6ft 6s 4s 13 18 mph 1020.9mb 51f 53f
5:20am 1.6ft 5s 4s 13 16 mph 1020.8mb 51f 53f
4:50am 2ft 6s 4s 13 20 mph 1020.6mb 51f 54f
4:20am 2.5ft 6s 5s 16 20 mph 1020.2mb 51f 54f
3:50am 2.5ft 5s 4s 16 20 mph 1020.2mb 51f 54f
3:20am 2.5ft 5s 4s 18 22 mph 1020.2mb 51f 54f
2:50am 3ft 5s 4s 20 25 mph 1019.7mb 51f 54f
2:20am 2.5ft 5s 4s 20 22 mph 1019.6mb 51f 54f
1:20am 3ft 5s 4s 25 29 mph 1019.2mb 52f 54f
12:50am 3ft 4s 4s 25 29 mph 1019.2mb 51f 54f
12:20am 3ft 4s 4s 20 25 mph 1019.3mb 51f 54f
Tue 06/28 11:50pm 3ft 4s 4s 22 25 mph 1019mb 51f 55f
11:20pm 3ft 4s 4s 20 22 mph 1019mb 51f 55f
10:50pm 3ft 4s 4s 20 25 mph 1018.8mb 52f 56f
10:20pm 2.5ft 4s 4s 20 22 mph 1018.7mb 52f 56f
9:50pm 3.5ft 5s 4s 16 18 mph 1018.7mb 52f 56f
9:20pm 3.5ft 5s 4s 16 18 mph 1018.5mb 52f 56f
8:50pm 3ft 5s 4s 16 20 mph 1018.4mb 52f 55f
8:20pm 3ft 5s 4s 18 20 mph 1018.3mb 52f 55f
7:50pm 3ft 4s 4s 18 22 mph 1018.3mb 52f 55f
7:20pm 3ft 4s 4s 20 25 mph 1018.3mb 52f 55f
6:50pm 2.5ft 4s 4s 18 22 mph 1018.4mb 52f 55f
6:20pm 2ft 4s 4s 18 20 mph 1018.7mb 52f 54f
5:20pm 2ft 4s 3s 18 20 mph 1019.3mb 52f 55f
4:50pm 2ft 4s 3s 16 18 mph 1019.7mb 53f 55f
4:20pm 1.6ft 4s 3s 16 18 mph 1020.1mb 52f 55f
3:50pm 1.3ft 4s 3s 16 18 mph 1020.3mb 52f 55f
3:20pm 1.3ft 4s 4s 13 18 mph 1020.7mb 53f 55f
2:50pm 1ft 3s 3s 11 13 mph 1020.9mb 52f 55f
2:20pm 1.3ft 3s 3s 11 13 mph 1021.2mb 52f 55f
1:50pm 1.3ft 3s 3s 11 13 mph 1021.4mb 52f 55f
1:20pm 1.3ft 3s 4s 11 16 mph 1021.6mb 52f 55f
12:50pm 1.6ft 4s 4s 11
mph
1021.9mb 52f 54f
12:20pm 1.6ft 4s 4s 11 13 mph 1021.9mb 52f 54f
11:50am 2ft 4s 4s 11 13 mph 1022mb 51f 54f
11:20am 2.5ft 4s 4s 16 18 mph 1022mb 51f 54f
10:50am 2.5ft 4s 4s 20 22 mph 1021.8mb 51f 53f
10:20am 2.5ft 4s 4s 18 22 mph 1021.9mb 51f 53f
9:50am 2.5ft 4s 4s 18 22 mph 1022.1mb 51f 53f
9:20am 3.5ft 7s 4s 18 22 mph 1022.1mb 51f 53f
8:50am 3.5ft 5s 4s 18 22 mph 1022.1mb 51f 53f
8:20am 3.5ft 5s 5s 18 22 mph 1022mb 51f 53f
7:50am 3ft 5s 4s 18 20 mph 1021.9mb 51f 53f
7:20am 3ft 5s 4s 18 20 mph 1021.7mb 51f 53f
6:50am 3.5ft 5s 5s 18 22 mph 1021.6mb 51f 53f
6:20am 2.5ft 5s 4s 20 22 mph 1021.2mb 51f 53f
5:50am 2.5ft 5s 4s 18 22 mph 1021.1mb 51f 53f
5:20am 2.5ft 5s 4s 18 22 mph 1021mb 51f 53f
4:50am 2.5ft 5s 5s 13 20 mph 1020.9mb 51f 53f
4:20am 2.5ft 6s 5s 11 16 mph 1020.9mb 51f 53f
3:50am 2.5ft 5s 5s 13 16 mph 1020.7mb 51f 53f
3:20am 3ft 6s 5s 16 20 mph 1020.5mb 51f 53f
2:50am 3ft 5s 4s 18 22 mph 1020.3mb 51f 53f
2:20am 3ft 5s 4s 22 27 mph 1019.8mb 51f 53f
1:50am 3.5ft 5s 4s 25 29 mph 1019.6mb 51f 53f
1:20am 3ft 5s 4s 25 29 mph 1019.6mb 51f 53f
12:50am 4ft 5s 4s 27 31 mph 1019.6mb 51f 53f
12:20am 3.5ft 5s 4s 29 36 mph 1019.4mb 51f 53f
Mon 06/27 11:50pm 3.5ft 4s 4s 29 34 mph 1019.2mb 51f 54f
11:20pm 3ft 4s 4s 27 31 mph 1019.3mb 51f 54f
10:50pm 2.5ft 4s 3s 25 29 mph 1019.3mb 51f 55f
10:20pm 2.5ft 3s 3s 27 31 mph 1019.2mb 51f 56f
9:50pm 2.5ft 4s 3s 18 20 mph 1019.2mb 51f 56f
9:20pm 2.5ft 4s 4s 16 18 mph 1019mb 51f 56f
8:50pm 2.5ft 4s 4s 16 18 mph 1018.8mb 52f 57f
8:20pm 3ft 5s 4s 13 18 mph 1018.9mb 51f 55f
7:50pm 3.5ft 5s 4s 20
mph
1018.6mb 51f 55f
7:20pm 3.5ft 5s 4s 20 22 mph 1018.5mb 51f 55f
6:50pm 3ft 5s 4s 20 25 mph 1018.3mb 52f 55f
6:20pm 3ft 4s 4s 22 25 mph 1018.4mb 52f 55f
5:50pm 2.5ft 5s 4s 22 25 mph 1018.6mb 52f 55f
5:20pm 2.5ft 4s 4s 22 25 mph 1018.9mb 52f 55f
4:50pm 2ft 4s 4s 22 25 mph 1019.2mb 52f 54f
4:20pm 2.5ft 4s 4s 20 25 mph 1019.5mb 52f 55f
3:50pm 2ft 4s 4s 18 20 mph 1019.7mb 52f 55f
3:20pm 1.3ft 4s 3s 13 18 mph 1020mb 53f 55f
2:50pm 1.3ft 3s 3s 13 16 mph 1020.2mb 52f 55f
2:20pm 1ft 3s 3s 13 16 mph 1020.5mb 52f 54f
1:50pm 1ft 3s 3s 13
mph
1020.4mb 53f 54f
1:20pm 1ft 3s 3s 13 16 mph 1020.6mb 53f 54f
12:50pm 1ft 3s 3s 11 13 mph 1020.6mb 52f 54f
12:20pm 1ft 3s 3s 9 11 mph 1020.6mb 52f 54f
11:50am 1ft 3s 3s 9 11 mph 1020.5mb 52f 54f
11:20am 0.7ft  -  3s 11 13 mph 1020.6mb 52f 54f
10:50am 0.7ft  -  3s 9 11 mph 1020.8mb 52f 53f
10:20am 0.7ft  -  3s 11
mph
1020.8mb 51f 54f
9:50am 1ft 3s 3s 11 13 mph 1020.7mb 52f 53f
9:20am 1ft 5s 3s 9 11 mph 1020.7mb 52f 53f
8:50am 1ft 5s 3s 7
mph
1020.7mb 51f 52f
8:20am 1ft 6s 4s 7
mph
1020.6mb 51f 52f
7:50am 1ft 5s 4s 7 9 mph 1020.4mb 51f 52f
7:20am 1ft 6s 4s 9
mph
1020.5mb 51f 52f
6:50am 1ft 6s 4s 7
mph
1020.3mb 51f 53f
6:20am 0.7ft  -  4s 4 7 mph 1020.1mb 51f 53f
5:50am 0.7ft  -  4s 7 9 mph 1019.9mb 51f 53f
5:20am 0.7ft  -  4s 7
mph
1019.8mb 51f 53f
4:50am 0.7ft  -  3s 7 9 mph 1019.5mb 51f 53f
4:20am 0.7ft  -  4s 4 7 mph 1019.4mb 51f 53f
3:50am 0.7ft  -  4s 7
mph
1019.3mb 51f 53f
3:20am 0.3ft  -  4s 7 9 mph 1019.4mb 51f 54f
2:50am 0.7ft  -  3s 7
mph
1019.3mb 51f 54f
2:20am 0.7ft  -  3s 7
mph
1019.3mb 52f 54f